createdAt,value
2018-06-23T00:01:01.515Z,7.3
2018-06-23T00:06:01.407Z,6.8
2018-06-23T00:11:02.570Z,6.2
2018-06-23T00:21:01.547Z,6.1
2018-06-23T00:26:01.373Z,7.0
2018-06-23T00:31:01.499Z,6.8
2018-06-23T00:36:01.503Z,6.3
2018-06-23T00:41:02.671Z,5.9
2018-06-23T00:46:01.382Z,5.8
2018-06-23T00:51:01.506Z,5.7
2018-06-23T00:56:01.388Z,5.5
2018-06-23T01:06:01.502Z,4.9
2018-06-23T01:11:01.929Z,4.6
2018-06-23T01:16:01.505Z,3.9
2018-06-23T01:21:01.388Z,4.3
2018-06-23T01:26:01.473Z,4.4
2018-06-23T01:31:01.490Z,4.3
2018-06-23T01:41:01.370Z,4.2
2018-06-23T01:46:06.384Z,4.0
2018-06-23T01:51:01.441Z,3.9
2018-06-23T01:56:01.381Z,4.1
2018-06-23T02:01:01.509Z,4.0
2018-06-23T02:06:01.424Z,4.4
2018-06-23T02:11:06.528Z,4.2
2018-06-23T02:16:02.403Z,4.4
2018-06-23T02:21:01.434Z,4.4
2018-06-23T02:26:02.430Z,4.2
2018-06-23T02:31:02.945Z,4.0
2018-06-23T02:41:01.511Z,3.7
2018-06-23T02:46:01.390Z,3.9
2018-06-23T02:57:01.516Z,4.1
2018-06-23T03:02:01.381Z,3.9
2018-06-23T03:07:06.354Z,3.8
2018-06-23T03:12:01.503Z,3.4
2018-06-23T03:17:01.443Z,3.0
2018-06-23T03:22:01.399Z,3.0
2018-06-23T03:32:02.570Z,3.1
2018-06-23T03:42:02.149Z,3.2
2018-06-23T03:52:01.451Z,3.2
2018-06-23T03:57:01.385Z,3.0
2018-06-23T04:12:01.521Z,3.0
2018-06-23T04:17:01.373Z,2.8
2018-06-23T04:22:01.463Z,2.8
2018-06-23T04:32:01.476Z,3.0
2018-06-23T04:42:01.452Z,3.2
2018-06-23T04:47:06.396Z,3.2
2018-06-23T04:52:01.515Z,3.8
2018-06-23T05:02:11.444Z,3.6
2018-06-23T05:07:01.341Z,3.7
2018-06-23T05:12:01.534Z,3.9
2018-06-23T05:17:01.350Z,3.5
2018-06-23T05:27:01.538Z,3.9
2018-06-23T05:32:01.585Z,4.2
2018-06-23T05:37:01.434Z,4.2
2018-06-23T05:47:01.499Z,4.3
2018-06-23T05:52:01.433Z,4.5
2018-06-23T05:57:01.408Z,4.5
2018-06-23T06:07:01.589Z,5.0
2018-06-23T06:12:01.398Z,4.9
2018-06-23T06:17:15.634Z,4.9
2018-06-23T06:22:01.374Z,4.7
2018-06-23T06:27:01.396Z,4.7
2018-06-23T06:32:01.659Z,4.6
2018-06-23T06:37:01.450Z,4.8
2018-06-23T06:42:01.734Z,4.8
2018-06-23T06:47:01.444Z,5.2
2018-06-23T06:52:02.677Z,5.2
2018-06-23T06:57:06.466Z,5.2
2018-06-23T07:07:06.541Z,5.5
2018-06-23T07:17:02.510Z,5.6
2018-06-23T07:22:01.726Z,5.6
2018-06-23T07:27:01.473Z,5.4
2018-06-23T07:32:01.508Z,5.3
2018-06-23T07:38:01.479Z,5.2
2018-06-23T07:43:01.309Z,4.8
2018-06-23T07:48:01.436Z,4.8
2018-06-23T07:53:02.407Z,4.4
2018-06-23T07:58:01.388Z,4.6
2018-06-23T08:03:01.734Z,4.4
2018-06-23T08:08:01.569Z,4.5
2018-06-23T08:18:01.518Z,4.6
2018-06-23T08:23:01.410Z,4.4
2018-06-23T08:33:01.529Z,4.6
2018-06-23T08:43:01.378Z,4.8
2018-06-23T08:48:01.517Z,4.7
2018-06-23T08:53:01.389Z,4.9
2018-06-23T08:58:01.457Z,5.1
2018-06-23T09:03:01.367Z,5.4
2018-06-23T09:08:01.423Z,5.8
2018-06-23T09:13:01.398Z,6.0
2018-06-23T09:18:01.380Z,5.8
2018-06-23T09:23:01.386Z,5.8
2018-06-23T09:33:01.545Z,5.4
2018-06-23T09:38:01.445Z,5.2
2018-06-23T09:43:06.340Z,5.2
2018-06-23T09:48:01.492Z,5.2
2018-06-23T09:53:06.380Z,5.0
2018-06-23T10:03:01.445Z,5.1
2018-06-23T10:08:01.512Z,5.0
2018-06-23T10:13:01.385Z,5.0
2018-06-23T10:18:01.555Z,5.3
2018-06-23T10:23:02.459Z,5.4
2018-06-23T10:28:01.570Z,5.4
2018-06-23T10:33:01.411Z,5.5
2018-06-23T10:38:01.550Z,5.5
2018-06-23T10:43:01.383Z,5.1
2018-06-23T10:48:01.854Z,4.9
2018-06-23T10:53:01.361Z,5.1
2018-06-23T10:58:01.394Z,5.1
2018-06-23T11:03:01.375Z,4.9
2018-06-23T11:08:01.468Z,4.9
2018-06-23T11:18:01.457Z,4.6
2018-06-23T11:23:01.390Z,4.4
2018-06-23T11:28:01.444Z,4.1
2018-06-23T11:33:01.484Z,4.2
2018-06-23T11:38:02.651Z,4.1
2018-06-23T11:43:01.410Z,4.0
2018-06-23T11:53:02.019Z,4.3
2018-06-23T11:58:01.481Z,4.2
2018-06-23T12:03:01.428Z,4.2
2018-06-23T12:08:01.559Z,4.2
2018-06-23T12:14:06.346Z,4.0
2018-06-23T12:19:06.570Z,3.7
2018-06-23T12:24:01.473Z,3.6
2018-06-23T12:29:07.152Z,3.5
2018-06-23T12:39:08.636Z,3.5
2018-06-23T12:44:01.457Z,3.5
2018-06-23T12:49:01.449Z,3.3
2018-06-23T12:54:01.376Z,3.1
2018-06-23T12:59:01.605Z,3.1
2018-06-23T13:04:06.454Z,3.3
2018-06-23T13:09:02.286Z,3.2
2018-06-23T13:19:06.887Z,3.5
2018-06-23T13:24:06.418Z,3.4
2018-06-23T13:29:01.602Z,3.3
2018-06-23T13:45:01.405Z,2.9
2018-06-23T13:50:01.699Z,3.1
2018-06-23T13:55:01.478Z,3.2
2018-06-23T14:00:01.709Z,3.3
2018-06-23T14:05:01.442Z,3.5
2018-06-23T14:10:01.638Z,3.8
2018-06-23T14:15:01.791Z,3.6
2018-06-23T14:20:01.497Z,3.3
2018-06-23T14:25:01.502Z,3.4
2018-06-23T14:30:01.510Z,3.5
2018-06-23T14:35:01.419Z,3.7
2018-06-23T14:40:01.528Z,4.0
2018-06-23T14:45:01.385Z,4.4
2018-06-23T14:50:06.445Z,4.4
2018-06-23T14:55:01.377Z,4.6
2018-06-23T15:00:01.627Z,4.4
2018-06-23T15:05:01.858Z,4.2
2018-06-23T15:20:00.787Z,4.0
2018-06-23T15:25:00.738Z,4.5
2018-06-23T15:30:00.784Z,4.4
2018-06-23T15:35:00.809Z,4.3
2018-06-23T15:40:00.913Z,4.3
2018-06-23T15:45:00.822Z,4.5
2018-06-23T15:50:00.794Z,4.3
2018-06-23T15:55:00.789Z,4.5
2018-06-23T16:00:00.867Z,4.8
2018-06-23T16:05:00.726Z,4.7
2018-06-23T16:10:01.017Z,5.3
2018-06-23T16:15:01.152Z,5.8
2018-06-23T16:20:00.856Z,6.2
2018-06-23T16:30:00.901Z,6.4
2018-06-23T16:35:01.293Z,5.6
2018-06-23T16:40:00.961Z,5.3
2018-06-23T16:45:00.771Z,4.4
2018-06-23T16:50:00.775Z,4.0
2018-06-23T16:55:00.772Z,4.2
2018-06-23T17:00:00.849Z,4.8
2018-06-23T17:05:00.850Z,5.0
2018-06-23T17:10:00.864Z,5.8
2018-06-23T17:15:00.808Z,6.1
2018-06-23T17:25:00.901Z,6.3
2018-06-23T17:30:00.962Z,6.6
2018-06-23T17:35:00.833Z,6.5
2018-06-23T17:40:00.994Z,6.6
2018-06-23T17:45:00.798Z,6.6
2018-06-23T17:55:00.865Z,6.3
2018-06-23T18:00:00.913Z,6.2
2018-06-23T18:05:00.776Z,6.5
2018-06-23T18:10:00.878Z,6.6
2018-06-23T18:15:00.751Z,6.6
2018-06-23T18:20:00.945Z,7.2
2018-06-23T18:25:01.183Z,8.3
2018-06-23T18:30:00.953Z,9.4
2018-06-23T18:35:00.852Z,9.7
2018-06-23T18:40:01.948Z,10.2
2018-06-23T18:45:00.829Z,10.3
2018-06-23T18:50:00.964Z,10.1
2018-06-23T18:55:01.018Z,9.2
2018-06-23T19:00:00.961Z,9.5
2018-06-23T19:05:00.771Z,10.0
2018-06-23T19:10:00.804Z,10.4
2018-06-23T19:15:00.872Z,10.6
2018-06-23T19:20:06.041Z,10.4
2018-06-23T19:25:00.928Z,10.3
2018-06-23T19:30:01.037Z,9.8
2018-06-23T19:35:05.812Z,9.5
2018-06-23T19:40:01.910Z,9.9
2018-06-23T19:45:01.856Z,10.2
2018-06-23T19:50:00.821Z,9.8
2018-06-23T19:55:01.147Z,10.1
2018-06-23T20:00:01.642Z,10.4
2018-06-23T20:05:01.151Z,9.9
2018-06-23T20:10:00.824Z,10.3
2018-06-23T20:15:01.898Z,10.9
2018-06-23T20:20:00.882Z,11.2
2018-06-23T20:25:00.886Z,10.8
2018-06-23T20:30:00.946Z,10.8
2018-06-23T20:35:00.866Z,11.1
2018-06-23T20:40:00.927Z,11.1
2018-06-23T20:45:00.864Z,10.7
2018-06-23T20:50:01.057Z,9.8
2018-06-23T20:55:00.890Z,9.9
2018-06-23T21:00:00.909Z,9.4
2018-06-23T21:05:00.858Z,9.4
2018-06-23T21:10:00.913Z,9.8
2018-06-23T21:15:00.983Z,10.7
2018-06-23T21:20:00.983Z,10.5
2018-06-23T21:25:00.894Z,10.5
2018-06-23T21:30:00.952Z,10.4
2018-06-23T21:35:05.889Z,10.2
2018-06-23T21:40:01.120Z,10.6
2018-06-23T21:45:00.867Z,10.9
2018-06-23T21:50:01.000Z,11.2
2018-06-23T21:55:00.865Z,11.0
2018-06-23T22:00:00.882Z,11.2
2018-06-23T22:05:00.912Z,11.1
2018-06-23T22:10:00.947Z,10.8
2018-06-23T22:15:00.922Z,10.4
2018-06-23T22:20:01.038Z,10.2
2018-06-23T22:25:00.954Z,10.1
2018-06-23T22:30:06.005Z,9.8
2018-06-23T22:35:00.937Z,10.0
2018-06-23T22:40:02.277Z,10.0
2018-06-23T22:45:00.986Z,9.8
2018-06-23T22:50:01.177Z,9.6
2018-06-23T22:55:00.899Z,8.8
2018-06-23T23:00:05.663Z,8.7
2018-06-23T23:05:00.995Z,8.4
2018-06-23T23:10:01.062Z,8.4
2018-06-23T23:15:05.988Z,7.8
2018-06-23T23:20:06.106Z,8.0
2018-06-23T23:25:00.937Z,7.4
2018-06-23T23:30:01.680Z,6.7
2018-06-23T23:35:00.986Z,6.2
2018-06-23T23:40:01.042Z,6.0
2018-06-23T23:45:05.977Z,5.7
2018-06-23T23:50:05.989Z,5.4
2018-06-23T23:55:00.877Z,5.5
